Hildreth, Nebraska
Current Conditions -  °F | °C
As of 11:15 PM on Saturday 25 Oct 2014 (Local Time) from KHDE Reporting Station
Clear Clear  
Wind Chill: 56°   Ceiling: Unl
Heat Index: 56°   Visibility: 10mi
Dew Point: 46°   Wind: 12mph
Humidity: 68%   Direction: 90°E
Pressure: 29.95"   Gusts: NA
Location:  40.34°N, 99.04°W
Report Text: KHDE 260415Z AUTO 09010KT 10SM CLR 14/08 A2995 RMK AO2 T01350077
Loading
Personal Weather Stations






























Interactive Weather Map
Tropical Storm Tracking
New forecast layout! Learn more

10-Day Weather Forecast

Advertisements
Track Severe Weather on mobile